Time;durP1;ratioP1;P1;durP2;ratioP2;P2;SDS_P1;SDS_P2;PMS_P1;PMS_P2;Temp;Humidity;BMP_temperature;BMP_pressure;BME280_temperature;BME280_humidity;BME280_pressure;Samples;Min_cycle;Max_cycle;Signal;HPM_P1;HPM_P2
2022/09/01 00:01:46;;;;;;;11.88;10.77;;;;;;;18.41;72.88;94734.59;5055559;28;20190;-70
2022/09/01 00:04:18;;;;;;;11.65;10.65;;;;;;;18.39;72.81;94737.81;5037663;28;20271;-70
2022/09/01 00:06:45;;;;;;;12.90;11.77;;;;;;;18.41;73.22;94729.00;5054201;28;20237;-70
2022/09/01 00:09:13;;;;;;;12.57;11.38;;;;;;;18.42;72.97;94728.63;5055610;28;20513;-70
2022/09/01 00:11:41;;;;;;;13.70;12.27;;;;;;;18.41;72.57;94720.63;5054380;28;20208;-70
2022/09/01 00:14:09;;;;;;;12.85;11.57;;;;;;;18.38;72.55;94725.06;5055410;28;20185;-70
2022/09/01 00:16:36;;;;;;;12.82;11.73;;;;;;;18.37;72.54;94715.09;5055371;28;20214;-70
2022/09/01 00:19:04;;;;;;;13.25;11.85;;;;;;;18.34;72.30;94715.94;5055560;28;20178;-70
2022/09/01 00:21:35;;;;;;;13.25;11.88;;;;;;;18.32;72.18;94715.53;5055084;28;20561;-70
2022/09/01 00:24:02;;;;;;;12.93;11.63;;;;;;;18.22;72.34;94722.00;5053516;28;20216;-70
2022/09/01 00:26:29;;;;;;;13.43;12.13;;;;;;;18.14;72.99;94721.25;5055205;28;20189;-70
2022/09/01 00:28:56;;;;;;;13.52;11.82;;;;;;;18.11;73.34;94719.28;5054773;28;20208;-70
2022/09/01 00:31:22;;;;;;;13.75;12.43;;;;;;;18.10;73.74;94720.50;5055298;28;20182;-70
2022/09/01 00:33:50;;;;;;;12.77;11.55;;;;;;;18.06;74.05;94716.94;5054335;28;20198;-70
2022/09/01 00:36:18;;;;;;;11.85;10.73;;;;;;;18.02;74.48;94725.34;5054163;28;20197;-70
2022/09/01 00:38:47;;;;;;;12.18;11.07;;;;;;;18.02;74.38;94724.53;5054187;28;20198;-70
2022/09/01 00:41:14;;;;;;;12.68;11.50;;;;;;;18.00;74.70;94736.09;5054214;28;20189;-70
2022/09/01 00:43:44;;;;;;;12.77;11.57;;;;;;;18.03;74.71;94728.91;5054875;28;20228;-70
2022/09/01 00:46:13;;;;;;;12.75;11.65;;;;;;;18.08;74.50;94731.25;5053981;28;20202;-70
2022/09/01 00:48:40;;;;;;;12.50;11.35;;;;;;;18.14;73.76;94737.22;5053930;28;20213;-70
2022/09/01 00:51:08;;;;;;;12.18;11.07;;;;;;;18.19;73.83;94733.97;5054310;28;20209;-70
2022/09/01 00:53:35;;;;;;;13.30;11.60;;;;;;;18.20;73.51;94735.59;5054202;28;20196;-70
2022/09/01 00:56:04;;;;;;;12.82;11.68;;;;;;;18.17;73.21;94728.03;5053972;28;20204;-70
2022/09/01 00:58:31;;;;;;;13.18;12.07;;;;;;;18.11;72.95;94735.22;5053884;28;20202;-70
2022/09/01 01:00:58;;;;;;;12.32;11.20;;;;;;;18.06;72.77;94739.25;5053766;28;20208;-70
2022/09/01 01:03:25;;;;;;;12.30;11.00;;;;;;;18.02;72.39;94741.28;5053644;28;20223;-70
2022/09/01 01:05:54;;;;;;;12.45;11.13;;;;;;;17.98;72.44;94746.09;5053439;28;20603;-70
2022/09/01 01:08:32;;;;;;;11.73;10.63;;;;;;;17.92;72.37;94750.50;5054218;28;20206;-70
2022/09/01 01:11:00;;;;;;;11.00;10.00;;;;;;;17.89;72.93;94740.94;5053892;28;20212;-70
2022/09/01 01:13:30;;;;;;;11.68;10.65;;;;;;;17.89;73.30;94737.38;5053637;28;20196;-70
2022/09/01 01:15:58;;;;;;;11.52;10.40;;;;;;;17.89;73.09;94737.38;5053467;28;20198;-70
2022/09/01 01:18:25;;;;;;;11.18;10.18;;;;;;;17.88;73.42;94733.78;5053495;28;20263;-70
2022/09/01 01:23:47;;;;;;;11.45;10.43;;;;;;;17.87;73.48;94726.63;5053454;28;20214;-70
2022/09/01 01:26:15;;;;;;;12.18;11.07;;;;;;;17.90;73.64;94734.19;5053351;28;20232;-70
2022/09/01 01:28:44;;;;;;;11.32;10.32;;;;;;;17.93;73.64;94736.13;5053592;28;20209;-70
2022/09/01 01:31:13;;;;;;;11.43;10.32;;;;;;;17.89;73.26;94735.38;5053749;28;20198;-70
2022/09/01 01:33:42;;;;;;;11.20;10.30;;;;;;;17.87;73.54;94731.44;5053994;28;20202;-70
2022/09/01 01:36:11;;;;;;;11.50;10.38;;;;;;;17.84;73.76;94737.81;5057325;28;20198;-70
2022/09/01 01:38:41;;;;;;;11.82;10.77;;;;;;;17.82;73.96;94731.84;5057421;28;20212;-70
2022/09/01 01:41:08;;;;;;;11.95;10.82;;;;;;;17.82;73.77;94740.22;5057275;28;20211;-70
2022/09/01 01:43:36;;;;;;;11.93;10.82;;;;;;;17.80;73.86;94737.84;5057447;28;20275;-70
2022/09/01 01:46:07;;;;;;;12.27;11.18;;;;;;;17.81;73.98;94747.78;5073705;28;20210;-70
2022/09/01 01:48:35;;;;;;;12.20;11.10;;;;;;;17.80;73.38;94747.00;5057624;28;20610;-70
2022/09/01 01:51:03;;;;;;;14.07;12.63;;;;;;;17.75;73.32;94743.78;5056959;28;20202;-70
2022/09/01 01:53:30;;;;;;;13.43;12.02;;;;;;;17.70;73.15;94755.38;5057003;28;20202;-70
2022/09/01 01:55:58;;;;;;;13.90;12.05;;;;;;;17.65;73.20;94755.81;5056684;28;20190;-70
2022/09/01 01:58:27;;;;;;;12.43;11.23;;;;;;;17.68;73.47;94755.78;5057321;28;20198;-70
2022/09/01 02:00:57;;;;;;;12.15;11.05;;;;;;;17.62;73.28;94765.78;5056650;28;20201;-70
2022/09/01 02:03:27;;;;;;;13.00;11.80;;;;;;;17.60;74.00;94764.59;5057281;28;20217;-70
2022/09/01 02:05:55;;;;;;;14.73;11.35;;;;;;;17.53;74.21;94766.22;5056638;28;20249;-70
2022/09/01 02:08:24;;;;;;;12.45;11.32;;;;;;;17.51;74.35;94768.63;5056500;28;20610;-70
2022/09/01 02:10:53;;;;;;;12.68;11.48;;;;;;;17.57;74.15;94768.97;5057806;28;20224;-70
2022/09/01 02:13:24;;;;;;;12.52;11.32;;;;;;;17.57;73.79;94763.41;5057100;28;20197;-70
2022/09/01 02:15:52;;;;;;;12.52;11.32;;;;;;;17.53;73.91;94771.78;5056498;28;20202;-70
2022/09/01 02:18:23;;;;;;;12.25;11.02;;;;;;;17.41;74.29;94775.03;5056884;28;20271;-70
2022/09/01 02:20:51;;;;;;;12.55;10.93;;;;;;;17.37;74.60;94765.91;5057047;28;20204;-70
2022/09/01 02:23:22;;;;;;;11.50;10.50;;;;;;;17.44;74.81;94774.22;5056518;28;20225;-70
2022/09/01 02:25:49;;;;;;;12.68;11.48;;;;;;;17.50;74.38;94771.81;5056303;28;20194;-70
2022/09/01 02:28:18;;;;;;;12.32;11.15;;;;;;;17.51;74.13;94760.25;5056521;28;20216;-70
2022/09/01 02:30:48;;;;;;;12.45;11.25;;;;;;;17.52;74.31;94759.06;5056776;28;20205;-70
2022/09/01 02:33:17;;;;;;;10.75;9.68;;;;;;;17.54;73.41;94761.44;5055984;28;20648;-70
2022/09/01 02:35:46;;;;;;;12.95;11.60;;;;;;;17.54;73.60;94753.88;5056195;28;20617;-70
2022/09/01 02:38:14;;;;;;;12.20;10.98;;;;;;;17.51;73.51;94756.69;5056155;28;20205;-70
2022/09/01 02:40:44;;;;;;;11.48;10.38;;;;;;;17.50;73.73;94752.28;5056443;28;20281;-70
2022/09/01 02:43:12;;;;;;;12.10;10.93;;;;;;;17.52;73.26;94752.69;5056458;28;20194;-70
2022/09/01 02:45:43;;;;;;;17.98;13.05;;;;;;;17.50;73.02;94744.75;5055290;28;20292;-70
2022/09/01 02:48:10;;;;;;;19.65;13.98;;;;;;;17.45;72.93;94744.34;5055977;28;20198;-70
2022/09/01 02:50:37;;;;;;;16.83;13.68;;;;;;;17.39;73.23;94745.97;5056174;28;20200;-70
2022/09/01 02:53:08;;;;;;;12.70;11.38;;;;;;;17.33;72.88;94743.59;5055798;28;20740;-71
2022/09/01 02:55:35;;;;;;;15.40;12.73;;;;;;;17.26;73.22;94749.22;5055960;28;20621;-71
2022/09/01 02:58:03;;;;;;;13.98;12.57;;;;;;;17.24;73.34;94742.44;5056098;28;20201;-71
2022/09/01 03:00:31;;;;;;;14.00;12.23;;;;;;;17.22;73.21;94742.06;5056073;28;20198;-71
2022/09/01 03:03:01;;;;;;;14.20;12.57;;;;;;;17.19;73.60;94742.88;5055902;28;20237;-71
2022/09/01 03:05:33;;;;;;;14.77;11.95;;;;;;;17.17;73.92;94754.41;5055482;28;20676;-71
2022/09/01 03:08:02;;;;;;;12.88;11.55;;;;;;;17.12;74.05;94754.03;5055701;28;20194;-70
2022/09/01 03:10:34;;;;;;;13.15;11.68;;;;;;;17.08;74.72;94746.47;5056276;28;20198;-70
2022/09/01 03:13:01;;;;;;;12.45;11.32;;;;;;;17.12;74.56;94751.25;5055865;28;20198;-70
2022/09/01 03:15:29;;;;;;;11.25;9.98;;;;;;;17.08;74.19;94752.06;5055886;28;20216;-70
2022/09/01 03:17:59;;;;;;;12.20;11.10;;;;;;;17.06;74.67;94745.28;5055454;28;20529;-71
2022/09/01 03:20:27;;;;;;;11.60;10.57;;;;;;;17.02;75.14;94744.50;5055482;28;20197;-71
2022/09/01 03:22:56;;;;;;;13.32;11.40;;;;;;;16.98;75.58;94749.28;5055640;28;20198;-71
2022/09/01 03:25:24;;;;;;;12.23;11.13;;;;;;;16.97;75.50;94751.28;5055228;28;20225;-69
2022/09/01 03:27:52;;;;;;;12.35;11.00;;;;;;;16.97;75.97;94756.84;5055277;28;20610;-70
2022/09/01 03:30:20;;;;;;;13.60;11.90;;;;;;;17.00;75.61;94756.06;5055086;28;20629;-70
2022/09/01 03:32:47;;;;;;;12.57;11.43;;;;;;;17.01;75.92;94766.00;5055364;28;20226;-70
2022/09/01 03:35:16;;;;;;;13.20;11.82;;;;;;;17.07;75.57;94756.03;5055084;28;20186;-70
2022/09/01 03:37:43;;;;;;;12.13;11.00;;;;;;;17.14;75.33;94757.19;5055291;28;20193;-70
2022/09/01 03:40:11;;;;;;;13.10;11.75;;;;;;;17.14;74.81;94746.88;5055187;28;20525;-70
2022/09/01 03:42:39;;;;;;;12.45;11.25;;;;;;;17.08;75.06;94754.03;5055178;28;20224;-70
2022/09/01 03:45:11;;;;;;;15.65;11.98;;;;;;;17.06;74.79;94753.63;5055056;28;20224;-70
2022/09/01 03:47:39;;;;;;;12.20;11.00;;;;;;;17.02;75.02;94753.66;5054821;28;20288;-70
2022/09/01 03:50:10;;;;;;;11.90;10.88;;;;;;;17.06;75.38;94757.22;5054545;28;20201;-71
2022/09/01 03:52:39;;;;;;;12.90;11.70;;;;;;;17.11;74.81;94755.25;5054635;28;20205;-70
2022/09/01 03:55:08;;;;;;;12.30;11.18;;;;;;;17.13;74.65;94755.63;5054719;28;20622;-69
2022/09/01 03:57:36;;;;;;;11.50;10.32;;;;;;;17.13;74.04;94758.41;5054514;28;20190;-69
2022/09/01 04:00:05;;;;;;;12.77;11.48;;;;;;;17.07;73.92;94763.59;5054503;28;20204;-70
2022/09/01 04:02:34;;;;;;;12.93;11.18;;;;;;;17.03;73.89;94769.19;5054773;28;20198;-70
2022/09/01 04:05:01;;;;;;;12.73;10.40;;;;;;;17.01;74.06;94757.63;5055034;28;20206;-70
2022/09/01 04:07:27;;;;;;;11.77;10.68;;;;;;;17.00;73.53;94769.19;5054210;28;20316;-70
2022/09/01 04:09:55;;;;;;;12.23;11.13;;;;;;;17.00;73.63;94766.41;5054513;28;20221;-68
2022/09/01 04:12:25;;;;;;;11.23;10.25;;;;;;;16.99;73.63;94770.38;5055899;28;20232;-70
2022/09/01 04:14:52;;;;;;;11.43;10.32;;;;;;;16.96;73.81;94766.41;5054187;28;20586;-70
2022/09/01 04:20:18;;;;;;;11.25;10.23;;;;;;;16.91;74.41;94772.38;4997558;28;20509;-69
2022/09/01 04:22:46;;;;;;;15.13;11.85;;;;;;;16.90;74.74;94759.66;5041667;28;20203;-69
2022/09/01 04:25:13;;;;;;;13.25;11.95;;;;;;;16.88;75.20;94759.25;5054794;28;20264;-70
2022/09/01 04:27:40;;;;;;;13.80;11.85;;;;;;;16.88;75.64;94761.25;5055538;28;20201;-70
2022/09/01 04:30:11;;;;;;;14.25;12.85;;;;;;;16.88;75.92;94761.25;5054913;28;20552;-69
2022/09/01 04:32:39;;;;;;;15.80;13.10;;;;;;;16.92;75.64;94753.69;5054172;28;20198;-69
2022/09/01 04:35:10;;;;;;;14.77;13.18;;;;;;;16.92;75.99;94759.25;5054268;28;20194;-69
2022/09/01 04:37:38;;;;;;;16.00;13.93;;;;;;;16.93;75.99;94752.50;5055455;28;20198;-70
2022/09/01 04:40:06;;;;;;;14.30;12.82;;;;;;;16.83;76.37;94757.69;5054675;28;20206;-70
2022/09/01 04:42:33;;;;;;;17.02;13.82;;;;;;;16.80;76.81;94755.69;5054726;28;20194;-69
2022/09/01 04:45:02;;;;;;;14.98;13.45;;;;;;;16.82;76.91;94761.66;5054783;28;20222;-70
2022/09/01 04:47:29;;;;;;;14.30;12.95;;;;;;;16.84;77.18;94758.47;5054812;28;20215;-69
2022/09/01 04:49:57;;;;;;;14.13;12.63;;;;;;;16.82;77.69;94752.53;5054447;28;20260;-69
2022/09/01 04:52:25;;;;;;;14.63;13.25;;;;;;;16.78;77.57;94757.31;5055048;28;20190;-70
2022/09/01 04:54:53;;;;;;;15.63;13.57;;;;;;;16.83;77.33;94756.88;5054611;28;20198;-70
2022/09/01 04:57:20;;;;;;;15.30;13.70;;;;;;;16.84;77.04;94758.47;5054741;28;20255;-71
2022/09/01 04:59:47;;;;;;;14.77;13.20;;;;;;;16.89;77.52;94755.28;5054983;28;20186;-71
2022/09/01 05:02:14;;;;;;;14.10;12.60;;;;;;;16.90;77.34;94761.66;5053828;28;20194;-72
2022/09/01 05:04:45;;;;;;;15.43;13.00;;;;;;;16.88;77.89;94752.88;5054028;28;20217;-72
2022/09/01 05:07:13;;;;;;;14.52;12.73;;;;;;;16.90;77.74;94756.88;5053859;28;20237;-73
2022/09/01 05:09:39;;;;;;;16.25;13.18;;;;;;;16.91;78.10;94746.53;5056413;28;20202;-72
2022/09/01 05:12:11;;;;;;;14.60;13.00;;;;;;;16.90;78.14;94747.72;5059026;28;20190;-72
2022/09/01 05:14:41;;;;;;;14.85;13.25;;;;;;;16.84;78.18;94748.13;5059118;28;20185;-71
2022/09/01 05:17:09;;;;;;;15.30;12.93;;;;;;;16.83;77.97;94742.97;5059034;28;20190;-72
2022/09/01 05:19:37;;;;;;;14.15;12.85;;;;;;;16.79;78.31;94740.19;5058125;28;20197;-72
2022/09/01 05:22:04;;;;;;;13.55;12.15;;;;;;;16.87;78.70;94749.31;5057878;28;20288;-73
2022/09/01 05:24:33;;;;;;;12.95;11.75;;;;;;;16.96;78.61;94751.69;5057828;28;20222;-73
2022/09/01 05:27:00;;;;;;;13.88;12.50;;;;;;;17.04;78.26;94754.06;5057967;28;20610;-73
2022/09/01 05:29:29;;;;;;;14.82;13.50;;;;;;;17.12;78.06;94748.47;5057930;28;20210;-74
2022/09/01 05:31:55;;;;;;;13.13;11.82;;;;;;;17.16;77.78;94747.25;5057266;28;20554;-72
2022/09/01 05:34:26;;;;;;;13.27;11.93;;;;;;;17.20;77.95;94750.03;5057575;28;20524;-72
2022/09/01 05:36:56;;;;;;;12.70;11.57;;;;;;;17.20;78.25;94745.25;5058483;28;20237;-72
2022/09/01 05:39:23;;;;;;;13.93;12.73;;;;;;;17.26;78.13;94740.84;5057141;28;20189;-72
2022/09/01 05:41:52;;;;;;;12.70;11.60;;;;;;;17.29;78.46;94747.63;5058645;28;20174;-72
2022/09/01 05:44:21;;;;;;;13.25;11.95;;;;;;;17.33;78.14;94751.97;5058171;28;20218;-70
2022/09/01 05:46:50;;;;;;;12.93;11.73;;;;;;;17.33;77.89;94749.19;5057640;28;20293;-71
2022/09/01 05:49:17;;;;;;;13.35;12.05;;;;;;;17.37;78.06;94742.81;5059551;28;20186;-71
2022/09/01 05:51:48;;;;;;;12.73;11.52;;;;;;;17.40;77.82;94753.16;5058664;28;20201;-72
2022/09/01 05:54:15;;;;;;;13.68;12.38;;;;;;;17.43;77.83;94749.53;5058221;28;20208;-73
2022/09/01 05:56:43;;;;;;;12.57;11.48;;;;;;;17.47;77.86;94762.28;5057584;28;20202;-72
2022/09/01 05:59:10;;;;;;;12.45;11.35;;;;;;;17.49;77.91;94754.28;5057439;28;20198;-71
2022/09/01 06:01:39;;;;;;;11.27;10.25;;;;;;;17.47;78.46;94751.13;5059602;28;20196;-72
2022/09/01 06:04:09;;;;;;;11.98;10.88;;;;;;;17.48;78.40;94744.34;5057109;28;20314;-72
2022/09/01 06:06:39;;;;;;;13.55;12.15;;;;;;;17.54;78.61;94741.94;5057640;28;20244;-71
2022/09/01 06:09:08;;;;;;;13.45;12.25;;;;;;;17.56;78.50;94745.09;5057552;28;20251;-71
2022/09/01 06:11:34;;;;;;;13.30;12.10;;;;;;;17.59;78.79;94741.50;5056838;28;20189;-71
2022/09/01 06:14:01;;;;;;;13.70;12.40;;;;;;;17.63;79.03;94741.47;5057809;28;20194;-71
2022/09/01 06:16:29;;;;;;;14.48;13.15;;;;;;;17.69;78.77;94734.28;5057066;28;20284;-72
2022/09/01 06:18:58;;;;;;;15.88;14.32;;;;;;;17.74;78.17;94734.63;5057742;28;20198;-72
2022/09/01 06:21:27;;;;;;;16.45;14.93;;;;;;;17.78;78.17;94727.06;5056527;28;20212;-71
2022/09/01 06:23:55;;;;;;;17.33;15.63;;;;;;;17.81;77.91;94733.84;5057552;28;20189;-71
2022/09/01 06:26:25;;;;;;;19.15;17.48;;;;;;;17.85;77.81;94731.81;5057123;28;20214;-71
2022/09/01 06:28:53;;;;;;;20.02;18.08;;;;;;;17.92;77.94;94730.97;5057378;28;20255;-71
2022/09/01 06:31:22;;;;;;;21.38;19.17;;;;;;;17.98;77.53;94737.72;5056926;28;20193;-71
2022/09/01 06:33:52;;;;;;;21.02;18.77;;;;;;;18.00;77.40;94732.50;5056498;28;20209;-71
2022/09/01 06:36:20;;;;;;;21.02;19.02;;;;;;;18.07;77.39;94737.25;5056479;28;20198;-71
2022/09/01 06:38:51;;;;;;;21.15;18.95;;;;;;;18.08;77.05;94736.03;5057461;28;20185;-71
2022/09/01 06:41:18;;;;;;;20.88;18.77;;;;;;;18.12;77.07;94728.44;5057276;28;20201;-71
2022/09/01 06:43:48;;;;;;;21.00;18.80;;;;;;;18.13;77.59;94730.84;5057030;28;20198;-71
2022/09/01 06:46:16;;;;;;;21.73;19.50;;;;;;;18.17;77.48;94733.59;5057151;28;20212;-72
2022/09/01 06:48:46;;;;;;;20.05;18.05;;;;;;;18.17;76.76;94734.41;5056635;28;20236;-71
2022/09/01 06:51:14;;;;;;;21.15;19.05;;;;;;;18.19;76.80;94734.78;5057066;28;20260;-71
2022/09/01 06:53:41;;;;;;;22.45;20.15;;;;;;;18.25;76.95;94726.75;5056378;28;20267;-72
2022/09/01 06:56:11;;;;;;;22.65;19.80;;;;;;;18.30;77.15;94726.34;5056098;28;20221;-71
2022/09/01 06:58:40;;;;;;;22.20;19.55;;;;;;;18.38;76.96;94721.47;5056974;28;20194;-71
2022/09/01 07:01:14;;;;;;;23.90;20.48;;;;;;;18.44;76.24;94728.19;5056160;28;20220;-71
2022/09/01 07:03:42;;;;;;;22.10;19.85;;;;;;;18.47;76.14;94728.16;5056454;28;20188;-71
2022/09/01 07:06:09;;;;;;;23.60;21.20;;;;;;;18.49;76.01;94731.34;5056238;28;20252;-71
2022/09/01 07:08:38;;;;;;;21.85;19.70;;;;;;;18.50;75.52;94732.94;5056964;28;20271;-71
2022/09/01 07:11:07;;;;;;;22.13;19.92;;;;;;;18.51;75.55;94730.94;5056692;28;20205;-71
2022/09/01 07:13:37;;;;;;;23.73;20.65;;;;;;;18.53;75.48;94729.31;5056223;28;20230;-71
2022/09/01 07:16:05;;;;;;;22.95;20.73;;;;;;;18.58;75.70;94732.88;5056352;28;20246;-71
2022/09/01 07:18:32;;;;;;;22.23;19.90;;;;;;;18.60;75.54;94730.47;5055594;28;20201;-71
2022/09/01 07:21:06;;;;;;;23.20;20.20;;;;;;;18.63;75.44;94738.03;5056226;28;20197;-71
2022/09/01 07:23:32;;;;;;;24.08;21.50;;;;;;;18.70;75.56;94737.94;5055496;28;20233;-72
2022/09/01 07:25:59;;;;;;;24.08;21.58;;;;;;;18.72;75.08;94733.56;5056502;28;20220;-71
2022/09/01 07:28:31;;;;;;;23.00;20.55;;;;;;;18.74;75.19;94730.38;5055986;28;20197;-71
2022/09/01 07:31:00;;;;;;;23.77;21.38;;;;;;;18.76;74.75;94725.94;5055647;28;20197;-71
2022/09/01 07:33:29;;;;;;;23.00;20.42;;;;;;;18.79;74.72;94727.09;5055895;28;20181;-71
2022/09/01 07:35:56;;;;;;;22.40;19.58;;;;;;;18.81;74.86;94724.72;5056084;28;20224;-71
2022/09/01 07:38:23;;;;;;;24.42;21.90;;;;;;;18.85;74.88;94725.47;5054980;28;20618;-71
2022/09/01 07:40:52;;;;;;;23.52;20.42;;;;;;;18.90;74.85;94724.22;5055820;28;20186;-72
2022/09/01 07:43:23;;;;;;;23.95;21.65;;;;;;;18.98;75.02;94728.50;5055711;28;20542;-71
2022/09/01 07:45:51;;;;;;;23.58;21.15;;;;;;;19.08;74.65;94724.03;5055770;28;20197;-71
2022/09/01 07:48:20;;;;;;;24.30;21.83;;;;;;;19.16;74.88;94725.53;5055033;28;20209;-71
2022/09/01 07:50:51;;;;;;;24.20;21.75;;;;;;;19.24;75.17;94724.22;5055328;28;20251;-71
2022/09/01 07:53:21;;;;;;;25.50;22.80;;;;;;;19.34;74.15;94728.91;5055908;28;20603;-72
2022/09/01 07:55:50;;;;;;;25.42;22.67;;;;;;;19.38;74.30;94728.84;5055572;28;20162;-72
2022/09/01 07:58:19;;;;;;;26.63;22.23;;;;;;;19.43;73.57;94729.19;5054776;28;20729;-72
2022/09/01 08:00:46;;;;;;;23.50;21.00;;;;;;;19.49;73.24;94718.31;5055587;28;20194;-72
2022/09/01 08:03:15;;;;;;;24.40;21.80;;;;;;;19.58;73.10;94721.41;5055691;28;20225;-72
2022/09/01 08:05:44;;;;;;;24.98;22.35;;;;;;;19.66;72.91;94724.94;5055484;28;20665;-73
2022/09/01 08:08:11;;;;;;;25.48;22.95;;;;;;;19.70;72.08;94729.28;5054446;28;20200;-72
2022/09/01 08:10:39;;;;;;;24.95;22.45;;;;;;;19.74;72.02;94734.81;5054739;28;20548;-72
2022/09/01 08:13:07;;;;;;;24.80;22.35;;;;;;;19.76;71.68;94723.22;5055061;28;20201;-72
2022/09/01 08:15:34;;;;;;;23.95;21.55;;;;;;;19.80;71.38;94723.97;5055292;28;20261;-72
2022/09/01 08:18:01;;;;;;;27.13;23.52;;;;;;;19.90;72.08;94729.41;5054614;28;20198;-72
2022/09/01 08:20:29;;;;;;;26.58;23.88;;;;;;;19.99;71.72;94720.47;5054486;28;20551;-73
2022/09/01 08:22:57;;;;;;;25.50;22.90;;;;;;;20.06;71.38;94722.38;5054516;28;20189;-72
2022/09/01 08:25:25;;;;;;;25.83;23.17;;;;;;;20.12;71.59;94721.50;5054382;28;20205;-72
2022/09/01 08:27:51;;;;;;;25.17;22.52;;;;;;;20.27;73.62;94713.66;5054380;28;20208;-71
2022/09/01 08:30:18;;;;;;;24.63;21.98;;;;;;;20.44;72.30;94712.59;5054344;28;20229;-73
2022/09/01 08:32:45;;;;;;;22.98;20.63;;;;;;;20.56;72.37;94705.59;5055581;28;20606;-71
2022/09/01 08:35:15;;;;;;;23.27;20.48;;;;;;;20.71;72.37;94708.94;5054571;28;20633;-71
2022/09/01 08:37:44;;;;;;;21.77;19.48;;;;;;;20.82;71.33;94703.94;5054922;28;20201;-72
2022/09/01 08:40:16;;;;;;;21.15;19.00;;;;;;;20.94;71.65;94710.94;5053843;28;20194;-72
2022/09/01 08:42:53;;;;;;;21.33;19.17;;;;;;;21.10;70.34;94708.25;5054808;28;20527;-72
2022/09/01 08:45:22;;;;;;;21.83;19.58;;;;;;;21.23;69.72;94697.16;5053992;28;20217;-72
2022/09/01 08:47:52;;;;;;;21.80;19.58;;;;;;;21.32;69.47;94700.19;5054758;28;20648;-72
2022/09/01 08:50:20;;;;;;;25.45;22.95;;;;;;;21.35;68.22;94685.34;5054804;28;20217;-72
2022/09/01 08:52:51;;;;;;;20.98;18.92;;;;;;;21.45;68.49;94679.91;5054907;28;20221;-72
2022/09/01 08:55:24;;;;;;;18.58;16.58;;;;;;;21.57;67.21;94680.06;5054116;28;20206;-72
2022/09/01 08:57:54;;;;;;;19.27;17.48;;;;;;;21.78;66.92;94675.19;5054739;28;20178;-72
2022/09/01 09:00:24;;;;;;;18.45;16.60;;;;;;;21.88;66.91;94680.56;5054961;28;20606;-73
2022/09/01 09:03:01;;;;;;;19.30;17.35;;;;;;;22.03;65.63;94677.44;5054464;28;20197;-72
2022/09/01 09:05:33;;;;;;;16.75;15.05;;;;;;;22.11;65.19;94668.44;5054360;28;20237;-72
2022/09/01 09:08:16;;;;;;;15.73;14.23;;;;;;;22.19;62.93;94671.09;5054913;28;20189;-72
2022/09/01 09:10:51;;;;;;;17.00;15.30;;;;;;;22.30;64.18;94669.59;5054966;28;20200;-72
2022/09/01 09:13:22;;;;;;;16.30;14.75;;;;;;;22.35;65.13;94671.09;5053911;28;20209;-72
2022/09/01 09:15:52;;;;;;;17.25;15.65;;;;;;;22.41;64.37;94665.75;5054779;28;20182;-72
2022/09/01 09:18:23;;;;;;;15.77;14.27;;;;;;;22.54;63.88;94660.97;5054255;28;20206;-72
2022/09/01 09:20:50;;;;;;;16.20;13.55;;;;;;;22.66;63.69;94662.28;5054949;28;20190;-72
2022/09/01 09:23:25;;;;;;;15.55;13.90;;;;;;;22.79;63.99;94663.13;5053776;28;20224;-72
2022/09/01 09:25:54;;;;;;;15.63;13.50;;;;;;;22.92;61.69;94661.22;5053793;28;20589;-72
2022/09/01 09:28:20;;;;;;;16.58;15.05;;;;;;;22.96;60.50;94659.09;5055063;28;20292;-72
2022/09/01 09:30:47;;;;;;;15.80;14.27;;;;;;;23.00;61.06;94656.97;5054075;28;20202;-72
2022/09/01 09:33:35;;;;;;;16.83;15.32;;;;;;;23.02;60.34;94653.69;5053887;28;20194;-72
2022/09/01 09:36:17;;;;;;;15.80;14.40;;;;;;;23.00;60.42;94648.53;5054578;28;20624;-71
2022/09/01 09:38:44;;;;;;;15.02;13.63;;;;;;;23.13;62.28;94650.59;5054683;28;20524;-72
2022/09/01 09:41:19;;;;;;;14.40;13.10;;;;;;;23.28;61.40;94641.31;5054039;28;20505;-72
2022/09/01 09:43:49;;;;;;;15.10;13.60;;;;;;;23.40;59.65;94642.59;5054695;28;20522;-72
2022/09/01 09:46:27;;;;;;;15.00;13.50;;;;;;;23.48;58.99;94643.16;5054246;28;20202;-72
2022/09/01 09:49:13;;;;;;;14.43;12.98;;;;;;;23.53;59.49;94640.59;5054302;28;20261;-71
2022/09/01 09:51:42;;;;;;;13.80;12.60;;;;;;;23.60;59.52;94641.59;5053668;28;20209;-71
2022/09/01 09:54:14;;;;;;;14.02;12.68;;;;;;;23.68;57.40;94640.19;5053639;28;20198;-71
2022/09/01 09:56:44;;;;;;;12.93;11.77;;;;;;;23.71;57.32;94636.47;5057869;28;20194;-71
2022/09/01 09:59:21;;;;;;;13.93;12.30;;;;;;;23.69;55.76;94634.09;5058027;28;20182;-71
2022/09/01 10:01:50;;;;;;;12.80;11.55;;;;;;;23.63;57.53;94629.44;5057121;28;20205;-71
2022/09/01 10:04:33;;;;;;;13.18;11.98;;;;;;;23.65;57.73;94632.63;5056990;28;20620;-71
2022/09/01 10:07:00;;;;;;;12.43;11.23;;;;;;;23.75;57.03;94626.69;5057421;28;20233;-71
2022/09/01 10:09:36;;;;;;;13.25;11.85;;;;;;;23.82;55.53;94630.50;5056888;28;20500;-71
2022/09/01 10:12:05;;;;;;;13.75;12.45;;;;;;;23.83;55.28;94621.63;5056634;28;20645;-71
2022/09/01 10:14:38;;;;;;;13.77;12.38;;;;;;;23.85;54.84;94623.97;5057182;28;20202;-74
2022/09/01 10:17:08;;;;;;;13.85;12.38;;;;;;;23.90;55.45;94623.44;5057085;28;20197;-74
2022/09/01 10:19:39;;;;;;;12.93;11.65;;;;;;;24.08;55.39;94620.84;5056679;28;20206;-74
2022/09/01 10:22:06;;;;;;;12.82;11.57;;;;;;;24.23;53.60;94616.31;5057703;28;20286;-74
2022/09/01 10:24:35;;;;;;;13.77;12.35;;;;;;;24.20;54.35;94617.22;5057180;28;20198;-74
2022/09/01 10:27:06;;;;;;;13.32;12.02;;;;;;;24.22;53.61;94602.66;5056863;28;20564;-74
2022/09/01 10:29:37;;;;;;;13.38;11.82;;;;;;;24.41;52.83;94609.31;5057184;28;20197;-74
2022/09/01 10:32:08;;;;;;;12.60;11.40;;;;;;;24.50;52.78;94606.59;5056883;28;20587;-73
2022/09/01 10:34:36;;;;;;;13.70;11.52;;;;;;;24.52;52.12;94598.47;5056795;28;20196;-74
2022/09/01 10:37:04;;;;;;;12.75;11.40;;;;;;;24.57;52.47;94602.72;5057122;28;20178;-73
2022/09/01 10:39:30;;;;;;;13.20;11.40;;;;;;;24.66;51.64;94597.19;5056616;28;20215;-73
2022/09/01 10:42:06;;;;;;;12.57;11.32;;;;;;;24.81;50.00;94603.91;5057154;28;20622;-71
2022/09/01 10:44:35;;;;;;;11.88;10.75;;;;;;;24.82;50.81;94601.88;5056642;28;20208;-71
2022/09/01 10:47:03;;;;;;;12.45;11.25;;;;;;;24.87;49.56;94592.81;5056865;28;20526;-71
2022/09/01 10:49:58;;;;;;;13.15;11.95;;;;;;;24.91;51.23;94596.28;5056057;28;20204;-71
2022/09/01 10:53:05;;;;;;;12.77;11.63;;;;;;;24.81;50.91;94595.44;5056096;28;20205;-71
2022/09/01 10:55:40;;;;;;;12.15;10.95;;;;;;;24.74;49.93;94587.22;4999270;28;20210;-71
2022/09/01 10:58:43;;;;;;;11.98;10.88;;;;;;;24.75;50.64;94580.34;5052438;28;20224;-72
2022/09/01 11:01:13;;;;;;;12.15;10.95;;;;;;;24.69;50.12;94582.97;4999543;28;20199;-72
2022/09/01 11:03:55;;;;;;;12.43;11.23;;;;;;;24.65;49.39;94573.81;5015462;28;20207;-72
2022/09/01 11:06:53;;;;;;;13.88;12.50;;;;;;;24.66;51.58;94571.81;5030831;28;20243;-71
2022/09/01 11:09:23;;;;;;;13.80;12.05;;;;;;;24.67;51.03;94574.16;4985276;28;20255;-70
2022/09/01 11:12:10;;;;;;;12.32;11.13;;;;;;;24.60;52.28;94576.47;4998525;28;20687;-69
2022/09/01 11:14:48;;;;;;;13.30;12.05;;;;;;;24.61;51.21;94569.56;4983609;28;20218;-69
2022/09/01 11:17:20;;;;;;;14.82;13.00;;;;;;;24.58;53.04;94574.06;4998717;28;20535;-69
2022/09/01 11:19:53;;;;;;;14.00;12.40;;;;;;;24.52;52.90;94575.13;5014902;28;20229;-70
2022/09/01 11:22:39;;;;;;;14.70;13.07;;;;;;;24.49;52.96;94569.16;5014876;28;20191;-68
2022/09/01 11:25:34;;;;;;;13.00;11.70;;;;;;;24.48;52.67;94566.81;5014916;28;20582;-69
2022/09/01 11:28:07;;;;;;;13.38;12.07;;;;;;;24.42;52.21;94558.13;4991792;28;20235;-69
2022/09/01 11:30:37;;;;;;;15.02;13.48;;;;;;;24.41;53.69;94553.75;4998361;28;20214;-70
2022/09/01 11:33:13;;;;;;;14.40;12.98;;;;;;;24.47;54.27;94554.75;5051385;28;20201;-69
2022/09/01 11:35:40;;;;;;;14.15;12.75;;;;;;;24.55;52.99;94546.81;5055463;28;20570;-73